sensor_id;sensor_type;location;lat;lon;timestamp;pressure;altitude;pressure_sealevel;temperature;humidity
34205;BME280;20471;49.680;20.074;2023-08-08T00:02:04;96819.27;;;14.18;81.91
34205;BME280;20471;49.680;20.074;2023-08-08T00:04:31;96821.73;;;14.19;81.70
34205;BME280;20471;49.680;20.074;2023-08-08T00:06:57;96824.83;;;14.19;81.40
34205;BME280;20471;49.680;20.074;2023-08-08T00:09:23;96826.31;;;14.18;81.31
34205;BME280;20471;49.680;20.074;2023-08-08T00:11:50;96830.67;;;14.19;81.29
34205;BME280;20471;49.680;20.074;2023-08-08T00:14:16;96830.15;;;14.19;81.14
34205;BME280;20471;49.680;20.074;2023-08-08T00:16:42;96831.52;;;14.20;80.98
34205;BME280;20471;49.680;20.074;2023-08-08T00:19:09;96841.21;;;14.22;80.94
34205;BME280;20471;49.680;20.074;2023-08-08T00:21:35;96840.86;;;14.21;80.70
34205;BME280;20471;49.680;20.074;2023-08-08T00:24:01;96840.52;;;14.19;80.83
34205;BME280;20471;49.680;20.074;2023-08-08T00:26:28;96846.89;;;14.20;80.81
34205;BME280;20471;49.680;20.074;2023-08-08T00:28:54;96845.23;;;14.19;80.92
34205;BME280;20471;49.680;20.074;2023-08-08T00:31:20;96848.84;;;14.17;80.65
34205;BME280;20471;49.680;20.074;2023-08-08T00:33:46;96845.58;;;14.17;80.66
34205;BME280;20471;49.680;20.074;2023-08-08T00:36:13;96847.39;;;14.18;80.51
34205;BME280;20471;49.680;20.074;2023-08-08T00:38:39;96847.73;;;14.18;80.28
34205;BME280;20471;49.680;20.074;2023-08-08T00:41:06;96849.23;;;14.18;80.25
34205;BME280;20471;49.680;20.074;2023-08-08T00:43:32;96852.11;;;14.18;80.15
34205;BME280;20471;49.680;20.074;2023-08-08T00:45:58;96857.02;;;14.17;80.05
34205;BME280;20471;49.680;20.074;2023-08-08T00:48:25;96862.63;;;14.17;80.05
34205;BME280;20471;49.680;20.074;2023-08-08T00:50:52;96866.27;;;14.18;79.87
34205;BME280;20471;49.680;20.074;2023-08-08T00:53:19;96870.38;;;14.19;79.99
34205;BME280;20471;49.680;20.074;2023-08-08T00:55:45;96867.46;;;14.20;79.79
34205;BME280;20471;49.680;20.074;2023-08-08T00:58:12;96870.11;;;14.20;79.77
34205;BME280;20471;49.680;20.074;2023-08-08T01:00:39;96872.70;;;14.18;79.57
34205;BME280;20471;49.680;20.074;2023-08-08T01:03:05;96874.11;;;14.19;79.48
34205;BME280;20471;49.680;20.074;2023-08-08T01:05:38;96867.96;;;14.21;79.20
34205;BME280;20471;49.680;20.074;2023-08-08T01:08:07;96873.01;;;14.23;78.93
34205;BME280;20471;49.680;20.074;2023-08-08T01:10:38;96871.64;;;14.23;78.89
34205;BME280;20471;49.680;20.074;2023-08-08T01:13:20;96879.63;;;14.20;78.47
34205;BME280;20471;49.680;20.074;2023-08-08T01:15:48;96882.36;;;14.21;78.45
34205;BME280;20471;49.680;20.074;2023-08-08T01:18:15;96882.00;;;14.22;78.54
34205;BME280;20471;49.680;20.074;2023-08-08T01:20:43;96889.15;;;14.24;78.49
34205;BME280;20471;49.680;20.074;2023-08-08T01:23:26;96887.41;;;14.25;78.46
34205;BME280;20471;49.680;20.074;2023-08-08T01:25:56;96885.02;;;14.26;78.55
34205;BME280;20471;49.680;20.074;2023-08-08T01:28:24;96891.57;;;14.28;78.47
34205;BME280;20471;49.680;20.074;2023-08-08T01:30:50;96889.62;;;14.28;78.32
34205;BME280;20471;49.680;20.074;2023-08-08T01:33:17;96890.25;;;14.27;78.54
34205;BME280;20471;49.680;20.074;2023-08-08T01:35:47;96896.36;;;14.28;78.44
34205;BME280;20471;49.680;20.074;2023-08-08T01:38:20;96893.89;;;14.29;78.38
34205;BME280;20471;49.680;20.074;2023-08-08T01:40:49;96895.75;;;14.28;78.77
34205;BME280;20471;49.680;20.074;2023-08-08T01:43:16;96904.16;;;14.27;78.98
34205;BME280;20471;49.680;20.074;2023-08-08T01:45:44;96910.61;;;14.27;78.75
34205;BME280;20471;49.680;20.074;2023-08-08T01:48:11;96912.01;;;14.25;78.46
34205;BME280;20471;49.680;20.074;2023-08-08T01:50:37;96919.48;;;14.23;78.67
34205;BME280;20471;49.680;20.074;2023-08-08T01:53:04;96921.34;;;14.22;78.86
34205;BME280;20471;49.680;20.074;2023-08-08T01:55:31;96925.60;;;14.17;78.79
34205;BME280;20471;49.680;20.074;2023-08-08T01:57:57;96926.34;;;14.12;78.80
34205;BME280;20471;49.680;20.074;2023-08-08T02:00:24;96924.73;;;14.07;78.71
34205;BME280;20471;49.680;20.074;2023-08-08T02:02:50;96921.09;;;14.00;78.71
34205;BME280;20471;49.680;20.074;2023-08-08T02:05:16;96923.72;;;13.96;78.59
34205;BME280;20471;49.680;20.074;2023-08-08T02:07:43;96924.03;;;13.93;78.70
34205;BME280;20471;49.680;20.074;2023-08-08T02:10:09;96920.48;;;13.91;78.60
34205;BME280;20471;49.680;20.074;2023-08-08T02:12:35;96918.95;;;13.90;78.76
34205;BME280;20471;49.680;20.074;2023-08-08T02:15:02;96923.33;;;13.86;78.79
34205;BME280;20471;49.680;20.074;2023-08-08T02:17:29;96926.76;;;13.84;78.64
34205;BME280;20471;49.680;20.074;2023-08-08T02:19:56;96930.22;;;13.78;78.74
34205;BME280;20471;49.680;20.074;2023-08-08T02:22:22;96929.48;;;13.67;78.89
34205;BME280;20471;49.680;20.074;2023-08-08T02:24:48;96930.20;;;13.57;79.05
34205;BME280;20471;49.680;20.074;2023-08-08T02:27:15;96931.51;;;13.52;79.43
34205;BME280;20471;49.680;20.074;2023-08-08T02:29:41;96934.27;;;13.45;79.61
34205;BME280;20471;49.680;20.074;2023-08-08T02:32:07;96939.13;;;13.39;79.71
34205;BME280;20471;49.680;20.074;2023-08-08T02:34:34;96944.34;;;13.39;80.01
34205;BME280;20471;49.680;20.074;2023-08-08T02:37:00;96944.98;;;13.40;80.22
34205;BME280;20471;49.680;20.074;2023-08-08T02:39:26;96949.67;;;13.38;80.34
34205;BME280;20471;49.680;20.074;2023-08-08T02:41:52;96951.81;;;13.36;80.55
34205;BME280;20471;49.680;20.074;2023-08-08T02:44:19;96951.27;;;13.37;80.78
34205;BME280;20471;49.680;20.074;2023-08-08T02:46:45;96954.48;;;13.34;80.82
34205;BME280;20471;49.680;20.074;2023-08-08T02:49:11;96955.56;;;13.31;80.97
34205;BME280;20471;49.680;20.074;2023-08-08T02:51:38;96957.42;;;13.32;81.05
34205;BME280;20471;49.680;20.074;2023-08-08T02:54:04;96961.05;;;13.27;80.96
34205;BME280;20471;49.680;20.074;2023-08-08T02:56:30;96962.61;;;13.24;81.10
34205;BME280;20471;49.680;20.074;2023-08-08T02:58:56;96964.73;;;13.22;81.30
34205;BME280;20471;49.680;20.074;2023-08-08T03:01:23;96966.40;;;13.19;81.26
34205;BME280;20471;49.680;20.074;2023-08-08T03:03:50;96967.35;;;13.18;81.33
34205;BME280;20471;49.680;20.074;2023-08-08T03:06:16;96967.24;;;13.15;81.31
34205;BME280;20471;49.680;20.074;2023-08-08T03:08:42;96970.69;;;13.13;81.34
34205;BME280;20471;49.680;20.074;2023-08-08T03:11:09;96971.91;;;13.11;81.63
34205;BME280;20471;49.680;20.074;2023-08-08T03:13:35;96971.73;;;13.13;81.78
34205;BME280;20471;49.680;20.074;2023-08-08T03:16:03;96979.39;;;13.13;81.79
34205;BME280;20471;49.680;20.074;2023-08-08T03:18:29;96982.02;;;13.13;81.92
34205;BME280;20471;49.680;20.074;2023-08-08T03:20:56;96980.70;;;13.12;82.05
34205;BME280;20471;49.680;20.074;2023-08-08T03:23:22;96983.52;;;13.12;82.14
34205;BME280;20471;49.680;20.074;2023-08-08T03:25:49;96987.94;;;13.13;82.32
34205;BME280;20471;49.680;20.074;2023-08-08T03:28:15;96991.02;;;13.11;82.13
34205;BME280;20471;49.680;20.074;2023-08-08T03:30:41;96992.63;;;13.10;82.20
34205;BME280;20471;49.680;20.074;2023-08-08T03:33:07;96998.48;;;13.08;82.31
34205;BME280;20471;49.680;20.074;2023-08-08T03:35:34;97000.80;;;13.07;82.36
34205;BME280;20471;49.680;20.074;2023-08-08T03:38:00;97001.60;;;13.02;82.13
34205;BME280;20471;49.680;20.074;2023-08-08T03:40:26;97004.20;;;12.97;82.42
34205;BME280;20471;49.680;20.074;2023-08-08T03:42:53;97006.05;;;12.99;82.69
34205;BME280;20471;49.680;20.074;2023-08-08T03:45:19;97004.89;;;13.01;82.62
34205;BME280;20471;49.680;20.074;2023-08-08T03:47:45;97007.27;;;12.97;82.33
34205;BME280;20471;49.680;20.074;2023-08-08T03:50:12;97013.04;;;12.92;82.67
34205;BME280;20471;49.680;20.074;2023-08-08T03:52:38;97014.89;;;12.93;82.85
34205;BME280;20471;49.680;20.074;2023-08-08T03:55:05;97021.70;;;12.93;82.71
34205;BME280;20471;49.680;20.074;2023-08-08T03:57:31;97031.77;;;12.92;82.94
34205;BME280;20471;49.680;20.074;2023-08-08T03:59:57;97034.27;;;12.95;83.21
34205;BME280;20471;49.680;20.074;2023-08-08T04:02:24;97033.52;;;12.97;83.21
34205;BME280;20471;49.680;20.074;2023-08-08T04:04:50;97035.38;;;12.99;83.25
34205;BME280;20471;49.680;20.074;2023-08-08T04:07:17;97040.06;;;13.01;83.52
34205;BME280;20471;49.680;20.074;2023-08-08T04:09:43;97042.45;;;12.99;83.48
34205;BME280;20471;49.680;20.074;2023-08-08T04:12:09;97043.95;;;12.96;83.45
34205;BME280;20471;49.680;20.074;2023-08-08T04:14:36;97050.02;;;12.98;83.72
34205;BME280;20471;49.680;20.074;2023-08-08T04:17:02;97056.20;;;13.03;83.51
34205;BME280;20471;49.680;20.074;2023-08-08T04:19:30;97060.46;;;13.05;83.27
34205;BME280;20471;49.680;20.074;2023-08-08T04:21:56;97059.99;;;13.06;83.29
34205;BME280;20471;49.680;20.074;2023-08-08T04:24:23;97059.08;;;13.08;83.38
34205;BME280;20471;49.680;20.074;2023-08-08T04:26:49;97057.75;;;13.11;83.34
34205;BME280;20471;49.680;20.074;2023-08-08T04:29:15;97060.44;;;13.14;83.29
34205;BME280;20471;49.680;20.074;2023-08-08T04:31:41;97069.82;;;13.19;83.36
34205;BME280;20471;49.680;20.074;2023-08-08T04:34:08;97063.27;;;13.19;83.01
34205;BME280;20471;49.680;20.074;2023-08-08T04:36:34;97063.85;;;13.21;83.36
34205;BME280;20471;49.680;20.074;2023-08-08T04:39:00;97065.25;;;13.22;83.36
34205;BME280;20471;49.680;20.074;2023-08-08T04:41:27;97065.59;;;13.23;83.18
34205;BME280;20471;49.680;20.074;2023-08-08T04:43:53;97064.94;;;13.21;82.92
34205;BME280;20471;49.680;20.074;2023-08-08T04:46:19;97068.64;;;13.22;82.80
34205;BME280;20471;49.680;20.074;2023-08-08T04:48:46;97068.23;;;13.24;82.65
34205;BME280;20471;49.680;20.074;2023-08-08T04:51:12;97069.21;;;13.25;82.50
34205;BME280;20471;49.680;20.074;2023-08-08T04:53:38;97068.89;;;13.28;82.32
34205;BME280;20471;49.680;20.074;2023-08-08T04:56:04;97074.84;;;13.27;82.06
34205;BME280;20471;49.680;20.074;2023-08-08T04:58:31;97078.55;;;13.29;81.99
34205;BME280;20471;49.680;20.074;2023-08-08T05:00:57;97078.89;;;13.31;81.86
34205;BME280;20471;49.680;20.074;2023-08-08T05:03:24;97080.98;;;13.38;81.61
34205;BME280;20471;49.680;20.074;2023-08-08T05:05:50;97083.67;;;13.44;81.44
34205;BME280;20471;49.680;20.074;2023-08-08T05:08:17;97088.92;;;13.48;81.30
34205;BME280;20471;49.680;20.074;2023-08-08T05:10:43;97091.93;;;13.52;80.94
34205;BME280;20471;49.680;20.074;2023-08-08T05:13:10;97094.14;;;13.54;80.78
34205;BME280;20471;49.680;20.074;2023-08-08T05:15:36;97093.08;;;13.55;80.90
34205;BME280;20471;49.680;20.074;2023-08-08T05:18:03;97095.13;;;13.57;80.66
34205;BME280;20471;49.680;20.074;2023-08-08T05:20:29;97092.61;;;13.60;80.25
34205;BME280;20471;49.680;20.074;2023-08-08T05:22:55;97101.11;;;13.67;80.31
34205;BME280;20471;49.680;20.074;2023-08-08T05:25:21;97105.18;;;13.75;80.32
34205;BME280;20471;49.680;20.074;2023-08-08T05:27:48;97106.98;;;13.81;80.35
34205;BME280;20471;49.680;20.074;2023-08-08T05:30:15;97104.11;;;13.85;80.31
34205;BME280;20471;49.680;20.074;2023-08-08T05:32:41;97111.45;;;13.89;80.06
34205;BME280;20471;49.680;20.074;2023-08-08T05:35:08;97109.91;;;13.93;79.75
34205;BME280;20471;49.680;20.074;2023-08-08T05:37:34;97110.66;;;13.97;79.25
34205;BME280;20471;49.680;20.074;2023-08-08T05:40:00;97113.66;;;14.01;78.76
34205;BME280;20471;49.680;20.074;2023-08-08T05:42:27;97111.71;;;14.04;78.51
34205;BME280;20471;49.680;20.074;2023-08-08T05:44:53;97113.11;;;14.06;78.25
34205;BME280;20471;49.680;20.074;2023-08-08T05:47:19;97114.75;;;14.12;78.13
34205;BME280;20471;49.680;20.074;2023-08-08T05:49:46;97116.16;;;14.18;78.07
34205;BME280;20471;49.680;20.074;2023-08-08T05:52:12;97118.28;;;14.23;77.82
34205;BME280;20471;49.680;20.074;2023-08-08T05:54:38;97116.70;;;14.28;77.60
34205;BME280;20471;49.680;20.074;2023-08-08T05:57:05;97113.56;;;14.34;77.35
34205;BME280;20471;49.680;20.074;2023-08-08T05:59:32;97110.83;;;14.39;76.95
34205;BME280;20471;49.680;20.074;2023-08-08T06:01:58;97109.66;;;14.42;76.44
34205;BME280;20471;49.680;20.074;2023-08-08T06:04:25;97107.59;;;14.45;76.22
34205;BME280;20471;49.680;20.074;2023-08-08T06:06:51;97102.45;;;14.47;76.09
34205;BME280;20471;49.680;20.074;2023-08-08T06:09:17;97102.07;;;14.52;76.16
34205;BME280;20471;49.680;20.074;2023-08-08T06:11:44;97102.54;;;14.56;76.07
34205;BME280;20471;49.680;20.074;2023-08-08T06:14:10;97095.61;;;14.60;75.76
34205;BME280;20471;49.680;20.074;2023-08-08T06:16:36;97092.30;;;14.64;75.76
34205;BME280;20471;49.680;20.074;2023-08-08T06:19:03;97094.00;;;14.67;75.54
34205;BME280;20471;49.680;20.074;2023-08-08T06:21:29;97098.33;;;14.72;75.10
34205;BME280;20471;49.680;20.074;2023-08-08T06:23:56;97102.45;;;14.75;74.80
34205;BME280;20471;49.680;20.074;2023-08-08T06:26:22;97102.98;;;14.77;74.54
34205;BME280;20471;49.680;20.074;2023-08-08T06:28:48;97104.65;;;14.80;74.32
34205;BME280;20471;49.680;20.074;2023-08-08T06:31:18;97099.45;;;14.84;74.30
34205;BME280;20471;49.680;20.074;2023-08-08T06:33:44;97098.81;;;14.89;74.23
34205;BME280;20471;49.680;20.074;2023-08-08T06:36:10;97095.38;;;14.94;73.57
34205;BME280;20471;49.680;20.074;2023-08-08T06:38:37;97103.23;;;14.99;73.58
34205;BME280;20471;49.680;20.074;2023-08-08T06:41:03;97103.90;;;15.00;73.11
34205;BME280;20471;49.680;20.074;2023-08-08T06:43:30;97098.44;;;15.01;72.88
34205;BME280;20471;49.680;20.074;2023-08-08T06:45:57;97098.23;;;14.99;72.39
34205;BME280;20471;49.680;20.074;2023-08-08T06:48:23;97098.41;;;15.00;72.19
34205;BME280;20471;49.680;20.074;2023-08-08T06:50:50;97098.20;;;15.03;71.68
34205;BME280;20471;49.680;20.074;2023-08-08T06:53:16;97103.77;;;15.09;71.65
34205;BME280;20471;49.680;20.074;2023-08-08T06:55:42;97098.37;;;15.14;71.43
34205;BME280;20471;49.680;20.074;2023-08-08T06:58:08;97093.52;;;15.19;71.08
34205;BME280;20471;49.680;20.074;2023-08-08T07:00:35;97091.52;;;15.27;71.01
34205;BME280;20471;49.680;20.074;2023-08-08T07:03:01;97095.29;;;15.39;70.79
34205;BME280;20471;49.680;20.074;2023-08-08T07:05:27;97092.95;;;15.51;70.43
34205;BME280;20471;49.680;20.074;2023-08-08T07:07:55;97089.55;;;15.59;70.29
34205;BME280;20471;49.680;20.074;2023-08-08T07:10:21;97095.25;;;15.65;70.15
34205;BME280;20471;49.680;20.074;2023-08-08T07:12:47;97095.47;;;15.69;70.20
34205;BME280;20471;49.680;20.074;2023-08-08T07:15:14;97091.06;;;15.73;69.96
34205;BME280;20471;49.680;20.074;2023-08-08T07:17:41;97092.29;;;15.79;69.87
34205;BME280;20471;49.680;20.074;2023-08-08T07:20:07;97092.34;;;15.87;69.92
34205;BME280;20471;49.680;20.074;2023-08-08T07:22:34;97093.20;;;15.95;69.85
34205;BME280;20471;49.680;20.074;2023-08-08T07:25:01;97095.07;;;16.00;69.00
34205;BME280;20471;49.680;20.074;2023-08-08T07:27:27;97092.52;;;16.07;68.87
34205;BME280;20471;49.680;20.074;2023-08-08T07:29:53;97093.89;;;16.11;68.30
34205;BME280;20471;49.680;20.074;2023-08-08T07:32:20;97092.09;;;16.14;67.90
34205;BME280;20471;49.680;20.074;2023-08-08T07:34:46;97089.11;;;16.17;67.73
34205;BME280;20471;49.680;20.074;2023-08-08T07:37:14;97092.95;;;16.28;67.75
34205;BME280;20471;49.680;20.074;2023-08-08T07:39:40;97093.83;;;16.38;67.35
34205;BME280;20471;49.680;20.074;2023-08-08T07:42:06;97095.23;;;16.47;66.68
34205;BME280;20471;49.680;20.074;2023-08-08T07:44:33;97092.79;;;16.54;66.28
34205;BME280;20471;49.680;20.074;2023-08-08T07:47:00;97092.38;;;16.64;65.39
34205;BME280;20471;49.680;20.074;2023-08-08T07:49:26;97091.67;;;16.93;65.27
34205;BME280;20471;49.680;20.074;2023-08-08T07:51:52;97095.21;;;17.13;64.32
34205;BME280;20471;49.680;20.074;2023-08-08T07:54:19;97096.80;;;17.12;63.94
34205;BME280;20471;49.680;20.074;2023-08-08T07:56:45;97089.75;;;17.24;63.51
34205;BME280;20471;49.680;20.074;2023-08-08T07:59:11;97092.23;;;17.57;63.34
34205;BME280;20471;49.680;20.074;2023-08-08T08:01:38;97090.80;;;17.94;62.89
34205;BME280;20471;49.680;20.074;2023-08-08T08:04:04;97087.43;;;18.34;62.37
34205;BME280;20471;49.680;20.074;2023-08-08T08:06:30;97086.48;;;18.50;62.22
34205;BME280;20471;49.680;20.074;2023-08-08T08:08:57;97087.41;;;18.62;61.80
34205;BME280;20471;49.680;20.074;2023-08-08T08:11:23;97084.39;;;18.82;61.44
34205;BME280;20471;49.680;20.074;2023-08-08T08:13:50;97082.45;;;19.22;61.10
34205;BME280;20471;49.680;20.074;2023-08-08T08:16:16;97081.89;;;19.47;60.04
34205;BME280;20471;49.680;20.074;2023-08-08T08:18:42;97085.06;;;19.35;59.27
34205;BME280;20471;49.680;20.074;2023-08-08T08:21:09;97088.04;;;19.19;58.92
34205;BME280;20471;49.680;20.074;2023-08-08T08:23:35;97090.93;;;19.11;58.67
34205;BME280;20471;49.680;20.074;2023-08-08T08:26:01;97092.73;;;18.95;58.75
34205;BME280;20471;49.680;20.074;2023-08-08T08:28:28;97095.39;;;18.89;58.64
34205;BME280;20471;49.680;20.074;2023-08-08T08:30:54;97086.77;;;19.11;58.78
34205;BME280;20471;49.680;20.074;2023-08-08T08:33:20;97082.27;;;19.19;58.54
34205;BME280;20471;49.680;20.074;2023-08-08T08:35:47;97081.94;;;19.50;58.25
34205;BME280;20471;49.680;20.074;2023-08-08T08:38:13;97084.70;;;20.06;58.01
34205;BME280;20471;49.680;20.074;2023-08-08T08:40:41;97085.34;;;20.64;57.25
34205;BME280;20471;49.680;20.074;2023-08-08T08:43:09;97088.70;;;20.80;56.44
34205;BME280;20471;49.680;20.074;2023-08-08T08:45:37;97092.29;;;20.68;55.98
34205;BME280;20471;49.680;20.074;2023-08-08T08:48:08;97090.45;;;20.64;55.18
34205;BME280;20471;49.680;20.074;2023-08-08T08:50:36;97093.30;;;21.07;55.39
34205;BME280;20471;49.680;20.074;2023-08-08T08:53:03;97091.93;;;21.48;54.88
34205;BME280;20471;49.680;20.074;2023-08-08T08:55:31;97086.75;;;21.72;54.41
34205;BME280;20471;49.680;20.074;2023-08-08T08:57:58;97083.70;;;22.12;53.49
34205;BME280;20471;49.680;20.074;2023-08-08T09:00:24;97084.71;;;22.54;53.18
34205;BME280;20471;49.680;20.074;2023-08-08T09:02:52;97090.73;;;22.45;52.14
34205;BME280;20471;49.680;20.074;2023-08-08T09:05:20;97087.98;;;22.12;51.71
34205;BME280;20471;49.680;20.074;2023-08-08T09:07:48;97090.27;;;21.82;51.67
34205;BME280;20471;49.680;20.074;2023-08-08T09:10:15;97094.35;;;21.47;51.25
34205;BME280;20471;49.680;20.074;2023-08-08T09:12:42;97089.25;;;21.36;51.22
34205;BME280;20471;49.680;20.074;2023-08-08T09:15:08;97087.15;;;21.42;51.31
34205;BME280;20471;49.680;20.074;2023-08-08T09:17:35;97086.36;;;21.79;51.08
34205;BME280;20471;49.680;20.074;2023-08-08T09:20:02;97089.42;;;22.07;50.69
34205;BME280;20471;49.680;20.074;2023-08-08T09:22:29;97089.10;;;22.12;50.50
34205;BME280;20471;49.680;20.074;2023-08-08T09:24:56;97088.43;;;22.39;50.45
34205;BME280;20471;49.680;20.074;2023-08-08T09:27:22;97078.80;;;22.52;50.11
34205;BME280;20471;49.680;20.074;2023-08-08T09:29:48;97083.44;;;22.80;50.00
34205;BME280;20471;49.680;20.074;2023-08-08T09:32:15;97075.19;;;23.08;49.44
34205;BME280;20471;49.680;20.074;2023-08-08T09:34:43;97074.55;;;23.42;48.70
34205;BME280;20471;49.680;20.074;2023-08-08T09:37:09;97074.06;;;23.70;48.30
34205;BME280;20471;49.680;20.074;2023-08-08T09:39:36;97070.09;;;23.88;47.94
34205;BME280;20471;49.680;20.074;2023-08-08T09:42:03;97068.41;;;23.86;47.21
34205;BME280;20471;49.680;20.074;2023-08-08T09:44:30;97069.23;;;23.87;46.95
34205;BME280;20471;49.680;20.074;2023-08-08T09:46:57;97067.95;;;23.81;46.17
34205;BME280;20471;49.680;20.074;2023-08-08T09:49:23;97065.97;;;23.47;45.83
34205;BME280;20471;49.680;20.074;2023-08-08T09:51:50;97065.33;;;23.36;46.16
34205;BME280;20471;49.680;20.074;2023-08-08T09:54:17;97064.58;;;23.19;46.06
34205;BME280;20471;49.680;20.074;2023-08-08T09:56:44;97067.73;;;22.92;45.67
34205;BME280;20471;49.680;20.074;2023-08-08T09:59:11;97066.58;;;22.61;45.88
34205;BME280;20471;49.680;20.074;2023-08-08T10:01:40;97065.36;;;22.37;46.28
34205;BME280;20471;49.680;20.074;2023-08-08T10:04:07;97072.80;;;22.10;46.28
34205;BME280;20471;49.680;20.074;2023-08-08T10:06:34;97074.77;;;21.73;46.51
34205;BME280;20471;49.680;20.074;2023-08-08T10:09:01;97075.85;;;21.27;46.07
34205;BME280;20471;49.680;20.074;2023-08-08T10:11:30;97074.90;;;20.93;46.17
34205;BME280;20471;49.680;20.074;2023-08-08T10:13:57;97071.95;;;20.85;46.73
34205;BME280;20471;49.680;20.074;2023-08-08T10:16:26;97065.62;;;20.79;46.42
34205;BME280;20471;49.680;20.074;2023-08-08T10:18:58;97063.42;;;20.69;46.58
34205;BME280;20471;49.680;20.074;2023-08-08T10:21:25;97053.67;;;20.67;46.86
34205;BME280;20471;49.680;20.074;2023-08-08T10:24:20;97054.64;;;20.71;47.16
34205;BME280;20471;49.680;20.074;2023-08-08T10:26:58;97056.00;;;21.02;47.48
34205;BME280;20471;49.680;20.074;2023-08-08T10:29:27;97061.13;;;21.14;46.33
34205;BME280;20471;49.680;20.074;2023-08-08T10:32:02;97058.52;;;20.98;46.36
34205;BME280;20471;49.680;20.074;2023-08-08T10:34:42;97056.89;;;20.95;46.69
34205;BME280;20471;49.680;20.074;2023-08-08T10:37:16;97062.91;;;20.97;46.76
34205;BME280;20471;49.680;20.074;2023-08-08T10:39:59;97067.36;;;20.96;46.64
34205;BME280;20471;49.680;20.074;2023-08-08T10:42:31;97061.67;;;20.86;46.57
34205;BME280;20471;49.680;20.074;2023-08-08T10:45:01;97063.57;;;20.81;46.62
34205;BME280;20471;49.680;20.074;2023-08-08T10:47:34;97061.78;;;20.77;46.27
34205;BME280;20471;49.680;20.074;2023-08-08T10:50:11;97062.33;;;20.70;46.48
34205;BME280;20471;49.680;20.074;2023-08-08T10:52:53;97066.94;;;20.69;46.63
34205;BME280;20471;49.680;20.074;2023-08-08T10:55:36;97065.10;;;20.65;46.82
34205;BME280;20471;49.680;20.074;2023-08-08T11:00:31;97070.59;;;20.31;46.56
34205;BME280;20471;49.680;20.074;2023-08-08T11:02:58;97070.70;;;20.31;46.76
34205;BME280;20471;49.680;20.074;2023-08-08T11:05:28;97074.11;;;20.42;46.71
34205;BME280;20471;49.680;20.074;2023-08-08T11:07:55;97070.05;;;20.43;46.98
34205;BME280;20471;49.680;20.074;2023-08-08T11:10:21;97067.93;;;20.40;46.95
34205;BME280;20471;49.680;20.074;2023-08-08T11:13:00;97065.42;;;20.33;47.08
34205;BME280;20471;49.680;20.074;2023-08-08T11:15:29;97072.44;;;20.31;47.29
34205;BME280;20471;49.680;20.074;2023-08-08T11:17:56;97067.80;;;20.43;47.78
34205;BME280;20471;49.680;20.074;2023-08-08T11:20:24;97069.09;;;20.68;47.58
34205;BME280;20471;49.680;20.074;2023-08-08T11:22:55;97064.67;;;20.82;47.62
34205;BME280;20471;49.680;20.074;2023-08-08T11:25:22;97064.42;;;20.92;47.56
34205;BME280;20471;49.680;20.074;2023-08-08T11:27:52;97060.67;;;20.88;47.47
34205;BME280;20471;49.680;20.074;2023-08-08T11:30:20;97062.11;;;20.78;47.53
34205;BME280;20471;49.680;20.074;2023-08-08T11:32:48;97069.14;;;20.69;47.40
34205;BME280;20471;49.680;20.074;2023-08-08T11:35:21;97067.52;;;20.56;47.55
34205;BME280;20471;49.680;20.074;2023-08-08T11:37:49;97072.86;;;20.54;47.82
34205;BME280;20471;49.680;20.074;2023-08-08T11:40:18;97069.73;;;20.44;47.07
34205;BME280;20471;49.680;20.074;2023-08-08T11:42:45;97068.06;;;20.37;47.19
34205;BME280;20471;49.680;20.074;2023-08-08T11:45:12;97076.96;;;20.41;47.27
34205;BME280;20471;49.680;20.074;2023-08-08T11:47:39;97072.41;;;20.42;47.14
34205;BME280;20471;49.680;20.074;2023-08-08T11:50:08;97068.55;;;20.34;47.24
34205;BME280;20471;49.680;20.074;2023-08-08T11:52:39;97069.91;;;20.07;46.50
34205;BME280;20471;49.680;20.074;2023-08-08T11:55:09;97070.34;;;19.96;46.73
34205;BME280;20471;49.680;20.074;2023-08-08T11:57:37;97067.23;;;19.96;46.92
34205;BME280;20471;49.680;20.074;2023-08-08T12:00:07;97071.36;;;20.04;47.43
34205;BME280;20471;49.680;20.074;2023-08-08T12:02:35;97069.90;;;19.97;47.12
34205;BME280;20471;49.680;20.074;2023-08-08T12:05:09;97074.09;;;19.92;47.35
34205;BME280;20471;49.680;20.074;2023-08-08T12:07:37;97076.79;;;19.86;47.66
34205;BME280;20471;49.680;20.074;2023-08-08T12:10:12;97082.94;;;19.78;47.76
34205;BME280;20471;49.680;20.074;2023-08-08T12:12:39;97090.45;;;19.71;48.48
34205;BME280;20471;49.680;20.074;2023-08-08T12:15:06;97108.55;;;19.60;48.25
34205;BME280;20471;49.680;20.074;2023-08-08T12:17:33;97128.04;;;19.44;48.48
34205;BME280;20471;49.680;20.074;2023-08-08T12:20:00;97118.41;;;19.33;49.62
34205;BME280;20471;49.680;20.074;2023-08-08T12:22:26;97105.04;;;19.39;50.93
34205;BME280;20471;49.680;20.074;2023-08-08T12:24:53;97093.77;;;19.47;51.39
34205;BME280;20471;49.680;20.074;2023-08-08T12:27:19;97087.91;;;19.55;52.05
34205;BME280;20471;49.680;20.074;2023-08-08T12:29:45;97082.02;;;19.73;53.21
34205;BME280;20471;49.680;20.074;2023-08-08T12:32:12;97076.30;;;19.82;53.31
34205;BME280;20471;49.680;20.074;2023-08-08T12:34:38;97079.48;;;19.86;54.07
34205;BME280;20471;49.680;20.074;2023-08-08T12:37:05;97071.86;;;19.98;53.25
34205;BME280;20471;49.680;20.074;2023-08-08T12:39:31;97080.19;;;20.14;52.71
34205;BME280;20471;49.680;20.074;2023-08-08T12:41:58;97073.72;;;20.31;52.29
34205;BME280;20471;49.680;20.074;2023-08-08T12:44:24;97066.91;;;20.48;51.70
34205;BME280;20471;49.680;20.074;2023-08-08T12:46:51;97062.64;;;20.64;51.14
34205;BME280;20471;49.680;20.074;2023-08-08T12:49:17;97060.92;;;20.83;50.80
34205;BME280;20471;49.680;20.074;2023-08-08T12:51:43;97058.84;;;21.03;50.41
34205;BME280;20471;49.680;20.074;2023-08-08T12:54:10;97055.80;;;21.22;49.80